sensor_id;sensor_type;location;lat;lon;timestamp;P1;durP1;ratioP1;P2;durP2;ratioP2
76826;SDS011;65788;52.284;20.890;2023-02-03T00:02:04;4.20;;;2.10;;
76826;SDS011;65788;52.284;20.890;2023-02-03T00:04:31;5.80;;;2.20;;
76826;SDS011;65788;52.284;20.890;2023-02-03T00:06:58;4.80;;;2.20;;
76826;SDS011;65788;52.284;20.890;2023-02-03T00:09:25;5.70;;;2.40;;
76826;SDS011;65788;52.284;20.890;2023-02-03T00:11:52;5.00;;;2.20;;
76826;SDS011;65788;52.284;20.890;2023-02-03T00:14:20;5.50;;;2.60;;
76826;SDS011;65788;52.284;20.890;2023-02-03T00:16:47;4.00;;;2.10;;
76826;SDS011;65788;52.284;20.890;2023-02-03T00:19:14;3.90;;;2.10;;
76826;SDS011;65788;52.284;20.890;2023-02-03T00:21:41;6.30;;;1.90;;
76826;SDS011;65788;52.284;20.890;2023-02-03T00:24:08;4.20;;;1.90;;
76826;SDS011;65788;52.284;20.890;2023-02-03T00:26:39;3.90;;;2.30;;
76826;SDS011;65788;52.284;20.890;2023-02-03T00:29:07;4.70;;;1.80;;
76826;SDS011;65788;52.284;20.890;2023-02-03T00:31:35;4.20;;;1.90;;
76826;SDS011;65788;52.284;20.890;2023-02-03T00:34:02;5.10;;;2.10;;
76826;SDS011;65788;52.284;20.890;2023-02-03T00:36:29;3.50;;;1.80;;
76826;SDS011;65788;52.284;20.890;2023-02-03T00:38:56;4.30;;;1.90;;
76826;SDS011;65788;52.284;20.890;2023-02-03T00:41:27;3.90;;;1.90;;
76826;SDS011;65788;52.284;20.890;2023-02-03T00:43:56;4.70;;;2.00;;
76826;SDS011;65788;52.284;20.890;2023-02-03T00:46:23;3.80;;;2.20;;
76826;SDS011;65788;52.284;20.890;2023-02-03T00:48:50;4.20;;;2.20;;
76826;SDS011;65788;52.284;20.890;2023-02-03T00:51:17;4.10;;;2.00;;
76826;SDS011;65788;52.284;20.890;2023-02-03T00:53:47;4.20;;;1.70;;
76826;SDS011;65788;52.284;20.890;2023-02-03T00:56:14;5.30;;;1.90;;
76826;SDS011;65788;52.284;20.890;2023-02-03T00:58:41;4.40;;;2.30;;
76826;SDS011;65788;52.284;20.890;2023-02-03T01:01:08;4.00;;;2.10;;
76826;SDS011;65788;52.284;20.890;2023-02-03T01:03:36;3.70;;;2.00;;
76826;SDS011;65788;52.284;20.890;2023-02-03T01:06:10;4.90;;;1.90;;
76826;SDS011;65788;52.284;20.890;2023-02-03T01:08:43;3.30;;;1.60;;
76826;SDS011;65788;52.284;20.890;2023-02-03T01:11:11;3.60;;;1.80;;
76826;SDS011;65788;52.284;20.890;2023-02-03T01:13:41;4.10;;;2.00;;
76826;SDS011;65788;52.284;20.890;2023-02-03T01:16:09;2.90;;;1.30;;
76826;SDS011;65788;52.284;20.890;2023-02-03T01:18:37;3.80;;;2.00;;
76826;SDS011;65788;52.284;20.890;2023-02-03T01:21:08;3.60;;;1.80;;
76826;SDS011;65788;52.284;20.890;2023-02-03T01:23:37;4.00;;;1.90;;
76826;SDS011;65788;52.284;20.890;2023-02-03T01:26:05;4.90;;;1.80;;
76826;SDS011;65788;52.284;20.890;2023-02-03T01:28:34;3.50;;;1.80;;
76826;SDS011;65788;52.284;20.890;2023-02-03T01:31:36;3.00;;;1.70;;
76826;SDS011;65788;52.284;20.890;2023-02-03T01:34:05;4.30;;;1.90;;
76826;SDS011;65788;52.284;20.890;2023-02-03T01:36:34;3.30;;;1.80;;
76826;SDS011;65788;52.284;20.890;2023-02-03T01:39:01;4.30;;;2.00;;
76826;SDS011;65788;52.284;20.890;2023-02-03T01:41:32;3.90;;;1.90;;
76826;SDS011;65788;52.284;20.890;2023-02-03T01:44:30;3.80;;;1.80;;
76826;SDS011;65788;52.284;20.890;2023-02-03T01:47:49;3.30;;;1.90;;
76826;SDS011;65788;52.284;20.890;2023-02-03T01:50:03;3.40;;;1.80;;
76826;SDS011;65788;52.284;20.890;2023-02-03T01:52:35;3.60;;;1.90;;
76826;SDS011;65788;52.284;20.890;2023-02-03T01:55:07;4.30;;;1.70;;
76826;SDS011;65788;52.284;20.890;2023-02-03T01:58:25;3.70;;;1.90;;
76826;SDS011;65788;52.284;20.890;2023-02-03T02:00:33;3.50;;;1.90;;
76826;SDS011;65788;52.284;20.890;2023-02-03T02:03:00;4.10;;;1.80;;
76826;SDS011;65788;52.284;20.890;2023-02-03T02:05:41;3.10;;;1.70;;
76826;SDS011;65788;52.284;20.890;2023-02-03T02:08:15;3.40;;;1.80;;
76826;SDS011;65788;52.284;20.890;2023-02-03T02:13:11;3.80;;;1.80;;
76826;SDS011;65788;52.284;20.890;2023-02-03T02:15:53;4.20;;;1.80;;
76826;SDS011;65788;52.284;20.890;2023-02-03T02:38:12;3.20;;;1.60;;
76826;SDS011;65788;52.284;20.890;2023-02-03T02:43:44;3.40;;;1.80;;
76826;SDS011;65788;52.284;20.890;2023-02-03T02:46:18;4.50;;;2.30;;
76826;SDS011;65788;52.284;20.890;2023-02-03T02:48:56;4.00;;;1.80;;
76826;SDS011;65788;52.284;20.890;2023-02-03T02:51:30;3.60;;;2.00;;
76826;SDS011;65788;52.284;20.890;2023-02-03T02:54:00;3.50;;;1.80;;
76826;SDS011;65788;52.284;20.890;2023-02-03T02:56:31;2.90;;;1.30;;
76826;SDS011;65788;52.284;20.890;2023-02-03T02:59:00;2.80;;;1.60;;
76826;SDS011;65788;52.284;20.890;2023-02-03T03:01:30;3.80;;;1.80;;
76826;SDS011;65788;52.284;20.890;2023-02-03T03:03:57;2.90;;;1.60;;
76826;SDS011;65788;52.284;20.890;2023-02-03T03:07:03;3.60;;;1.80;;
76826;SDS011;65788;52.284;20.890;2023-02-03T03:09:40;3.20;;;1.60;;
76826;SDS011;65788;52.284;20.890;2023-02-03T03:12:19;2.80;;;1.70;;
76826;SDS011;65788;52.284;20.890;2023-02-03T03:14:58;3.00;;;1.60;;
76826;SDS011;65788;52.284;20.890;2023-02-03T03:17:30;3.60;;;1.90;;
76826;SDS011;65788;52.284;20.890;2023-02-03T03:20:02;3.60;;;2.00;;
76826;SDS011;65788;52.284;20.890;2023-02-03T03:22:34;3.00;;;1.60;;
76826;SDS011;65788;52.284;20.890;2023-02-03T03:25:08;2.80;;;1.60;;
76826;SDS011;65788;52.284;20.890;2023-02-03T03:27:42;3.10;;;1.70;;
76826;SDS011;65788;52.284;20.890;2023-02-03T03:30:25;4.90;;;1.80;;
76826;SDS011;65788;52.284;20.890;2023-02-03T03:33:05;4.20;;;1.50;;
76826;SDS011;65788;52.284;20.890;2023-02-03T03:35:36;3.60;;;1.80;;
76826;SDS011;65788;52.284;20.890;2023-02-03T03:38:38;3.50;;;2.00;;
76826;SDS011;65788;52.284;20.890;2023-02-03T03:41:14;3.80;;;1.70;;
76826;SDS011;65788;52.284;20.890;2023-02-03T03:43:51;3.10;;;1.70;;
76826;SDS011;65788;52.284;20.890;2023-02-03T03:46:25;2.90;;;1.50;;
76826;SDS011;65788;52.284;20.890;2023-02-03T03:48:57;3.20;;;1.70;;
76826;SDS011;65788;52.284;20.890;2023-02-03T03:51:35;3.70;;;1.90;;
76826;SDS011;65788;52.284;20.890;2023-02-03T03:54:07;3.00;;;1.60;;
76826;SDS011;65788;52.284;20.890;2023-02-03T03:56:42;3.90;;;1.80;;
76826;SDS011;65788;52.284;20.890;2023-02-03T04:01:45;2.90;;;1.70;;
76826;SDS011;65788;52.284;20.890;2023-02-03T04:04:14;3.10;;;1.70;;
76826;SDS011;65788;52.284;20.890;2023-02-03T04:06:42;3.10;;;1.60;;
76826;SDS011;65788;52.284;20.890;2023-02-03T04:09:09;2.40;;;1.50;;
76826;SDS011;65788;52.284;20.890;2023-02-03T04:11:36;3.10;;;1.70;;
76826;SDS011;65788;52.284;20.890;2023-02-03T04:14:22;3.30;;;1.90;;
76826;SDS011;65788;52.284;20.890;2023-02-03T04:16:49;3.20;;;1.90;;
76826;SDS011;65788;52.284;20.890;2023-02-03T04:19:17;2.60;;;1.70;;
76826;SDS011;65788;52.284;20.890;2023-02-03T04:21:45;3.80;;;1.90;;
76826;SDS011;65788;52.284;20.890;2023-02-03T04:24:14;3.20;;;1.80;;
76826;SDS011;65788;52.284;20.890;2023-02-03T04:26:41;2.50;;;1.60;;
76826;SDS011;65788;52.284;20.890;2023-02-03T04:29:09;3.20;;;2.10;;
76826;SDS011;65788;52.284;20.890;2023-02-03T04:31:36;3.90;;;1.90;;
76826;SDS011;65788;52.284;20.890;2023-02-03T04:34:04;3.30;;;1.90;;
76826;SDS011;65788;52.284;20.890;2023-02-03T04:36:31;5.20;;;1.80;;
76826;SDS011;65788;52.284;20.890;2023-02-03T04:38:58;3.00;;;1.80;;
76826;SDS011;65788;52.284;20.890;2023-02-03T04:41:25;3.50;;;1.90;;
76826;SDS011;65788;52.284;20.890;2023-02-03T04:43:52;3.60;;;1.70;;
76826;SDS011;65788;52.284;20.890;2023-02-03T04:46:19;3.40;;;1.90;;
76826;SDS011;65788;52.284;20.890;2023-02-03T04:48:46;3.20;;;1.90;;
76826;SDS011;65788;52.284;20.890;2023-02-03T04:51:13;3.80;;;1.90;;
76826;SDS011;65788;52.284;20.890;2023-02-03T04:53:40;3.80;;;2.00;;
76826;SDS011;65788;52.284;20.890;2023-02-03T04:56:07;3.00;;;1.70;;
76826;SDS011;65788;52.284;20.890;2023-02-03T04:58:35;3.20;;;1.60;;
76826;SDS011;65788;52.284;20.890;2023-02-03T05:01:06;3.80;;;1.70;;
76826;SDS011;65788;52.284;20.890;2023-02-03T05:03:34;2.60;;;1.60;;
76826;SDS011;65788;52.284;20.890;2023-02-03T05:06:01;3.20;;;1.90;;
76826;SDS011;65788;52.284;20.890;2023-02-03T05:08:29;3.30;;;1.90;;
76826;SDS011;65788;52.284;20.890;2023-02-03T05:10:57;3.60;;;1.80;;
76826;SDS011;65788;52.284;20.890;2023-02-03T05:13:24;3.40;;;2.10;;
76826;SDS011;65788;52.284;20.890;2023-02-03T05:15:51;3.40;;;1.80;;
76826;SDS011;65788;52.284;20.890;2023-02-03T05:18:18;3.50;;;1.90;;
76826;SDS011;65788;52.284;20.890;2023-02-03T05:20:45;2.90;;;1.80;;
76826;SDS011;65788;52.284;20.890;2023-02-03T05:23:12;3.50;;;1.90;;
76826;SDS011;65788;52.284;20.890;2023-02-03T05:25:39;3.90;;;2.00;;
76826;SDS011;65788;52.284;20.890;2023-02-03T05:28:06;3.70;;;1.90;;
76826;SDS011;65788;52.284;20.890;2023-02-03T05:30:33;3.30;;;1.90;;
76826;SDS011;65788;52.284;20.890;2023-02-03T05:33:00;3.20;;;1.90;;
76826;SDS011;65788;52.284;20.890;2023-02-03T05:35:27;3.80;;;2.30;;
76826;SDS011;65788;52.284;20.890;2023-02-03T05:37:54;4.70;;;2.70;;
76826;SDS011;65788;52.284;20.890;2023-02-03T05:40:21;4.60;;;2.10;;
76826;SDS011;65788;52.284;20.890;2023-02-03T05:43:06;2.80;;;1.80;;
76826;SDS011;65788;52.284;20.890;2023-02-03T05:45:34;3.20;;;1.90;;
76826;SDS011;65788;52.284;20.890;2023-02-03T05:48:01;3.60;;;2.10;;
76826;SDS011;65788;52.284;20.890;2023-02-03T05:50:28;3.30;;;1.80;;
76826;SDS011;65788;52.284;20.890;2023-02-03T05:52:59;3.70;;;1.90;;
76826;SDS011;65788;52.284;20.890;2023-02-03T05:55:27;4.00;;;2.20;;
76826;SDS011;65788;52.284;20.890;2023-02-03T05:57:55;3.50;;;2.10;;
76826;SDS011;65788;52.284;20.890;2023-02-03T06:00:26;5.20;;;2.60;;
76826;SDS011;65788;52.284;20.890;2023-02-03T06:02:54;3.90;;;2.00;;
76826;SDS011;65788;52.284;20.890;2023-02-03T06:05:25;4.80;;;2.30;;
76826;SDS011;65788;52.284;20.890;2023-02-03T06:07:52;4.20;;;2.40;;
76826;SDS011;65788;52.284;20.890;2023-02-03T06:10:20;5.10;;;2.00;;
76826;SDS011;65788;52.284;20.890;2023-02-03T06:12:48;4.00;;;2.10;;
76826;SDS011;65788;52.284;20.890;2023-02-03T06:15:15;4.00;;;2.00;;
76826;SDS011;65788;52.284;20.890;2023-02-03T06:17:43;3.80;;;2.00;;
76826;SDS011;65788;52.284;20.890;2023-02-03T06:20:13;6.40;;;2.10;;
76826;SDS011;65788;52.284;20.890;2023-02-03T06:22:41;3.80;;;2.20;;
76826;SDS011;65788;52.284;20.890;2023-02-03T06:25:09;4.60;;;2.10;;
76826;SDS011;65788;52.284;20.890;2023-02-03T06:27:36;3.80;;;2.00;;
76826;SDS011;65788;52.284;20.890;2023-02-03T06:30:04;3.70;;;2.10;;
76826;SDS011;65788;52.284;20.890;2023-02-03T06:32:31;4.80;;;2.20;;
76826;SDS011;65788;52.284;20.890;2023-02-03T06:34:58;3.90;;;2.50;;
76826;SDS011;65788;52.284;20.890;2023-02-03T06:37:26;4.60;;;2.30;;
76826;SDS011;65788;52.284;20.890;2023-02-03T06:39:52;3.00;;;1.90;;
76826;SDS011;65788;52.284;20.890;2023-02-03T06:42:19;3.60;;;2.10;;
76826;SDS011;65788;52.284;20.890;2023-02-03T06:44:46;3.90;;;2.30;;
76826;SDS011;65788;52.284;20.890;2023-02-03T06:47:13;3.70;;;1.90;;
76826;SDS011;65788;52.284;20.890;2023-02-03T06:49:40;4.30;;;2.20;;
76826;SDS011;65788;52.284;20.890;2023-02-03T06:52:06;3.90;;;2.10;;
76826;SDS011;65788;52.284;20.890;2023-02-03T06:54:33;3.50;;;1.90;;
76826;SDS011;65788;52.284;20.890;2023-02-03T06:57:02;3.40;;;2.10;;
76826;SDS011;65788;52.284;20.890;2023-02-03T06:59:29;6.20;;;2.10;;
76826;SDS011;65788;52.284;20.890;2023-02-03T07:01:56;4.10;;;2.20;;
76826;SDS011;65788;52.284;20.890;2023-02-03T07:04:23;6.00;;;2.60;;
76826;SDS011;65788;52.284;20.890;2023-02-03T07:06:50;5.20;;;2.20;;
76826;SDS011;65788;52.284;20.890;2023-02-03T07:09:17;3.90;;;2.00;;
76826;SDS011;65788;52.284;20.890;2023-02-03T07:11:44;5.70;;;2.30;;
76826;SDS011;65788;52.284;20.890;2023-02-03T07:14:11;4.90;;;2.40;;
76826;SDS011;65788;52.284;20.890;2023-02-03T07:16:38;4.90;;;2.60;;
76826;SDS011;65788;52.284;20.890;2023-02-03T07:19:05;5.40;;;2.00;;
76826;SDS011;65788;52.284;20.890;2023-02-03T07:21:32;5.20;;;2.60;;
76826;SDS011;65788;52.284;20.890;2023-02-03T07:23:59;5.70;;;2.60;;
76826;SDS011;65788;52.284;20.890;2023-02-03T07:26:28;4.70;;;2.50;;
76826;SDS011;65788;52.284;20.890;2023-02-03T07:28:55;5.00;;;2.20;;
76826;SDS011;65788;52.284;20.890;2023-02-03T07:31:24;5.00;;;2.30;;
76826;SDS011;65788;52.284;20.890;2023-02-03T07:33:50;4.40;;;2.70;;
76826;SDS011;65788;52.284;20.890;2023-02-03T07:36:17;5.30;;;2.40;;
76826;SDS011;65788;52.284;20.890;2023-02-03T07:38:50;5.20;;;2.40;;
76826;SDS011;65788;52.284;20.890;2023-02-03T07:41:17;3.70;;;2.30;;
76826;SDS011;65788;52.284;20.890;2023-02-03T07:43:44;5.60;;;2.60;;
76826;SDS011;65788;52.284;20.890;2023-02-03T07:46:12;6.10;;;2.80;;
76826;SDS011;65788;52.284;20.890;2023-02-03T07:48:39;6.20;;;2.60;;
76826;SDS011;65788;52.284;20.890;2023-02-03T07:51:06;4.30;;;2.40;;
76826;SDS011;65788;52.284;20.890;2023-02-03T07:53:32;5.00;;;2.60;;
76826;SDS011;65788;52.284;20.890;2023-02-03T07:56:00;6.20;;;2.50;;
76826;SDS011;65788;52.284;20.890;2023-02-03T07:58:29;5.70;;;2.50;;
76826;SDS011;65788;52.284;20.890;2023-02-03T08:00:56;5.30;;;2.60;;
76826;SDS011;65788;52.284;20.890;2023-02-03T08:03:23;5.80;;;2.80;;
76826;SDS011;65788;52.284;20.890;2023-02-03T08:05:51;5.00;;;2.90;;
76826;SDS011;65788;52.284;20.890;2023-02-03T08:08:19;5.20;;;2.50;;
76826;SDS011;65788;52.284;20.890;2023-02-03T08:10:46;5.70;;;2.50;;
76826;SDS011;65788;52.284;20.890;2023-02-03T08:13:12;6.10;;;3.30;;
76826;SDS011;65788;52.284;20.890;2023-02-03T08:15:39;7.10;;;2.70;;
76826;SDS011;65788;52.284;20.890;2023-02-03T08:18:06;6.90;;;2.90;;
76826;SDS011;65788;52.284;20.890;2023-02-03T08:20:35;6.50;;;2.40;;
76826;SDS011;65788;52.284;20.890;2023-02-03T08:23:01;4.50;;;2.80;;
76826;SDS011;65788;52.284;20.890;2023-02-03T08:25:28;6.40;;;2.90;;
76826;SDS011;65788;52.284;20.890;2023-02-03T08:27:56;4.80;;;2.70;;
76826;SDS011;65788;52.284;20.890;2023-02-03T08:30:23;8.30;;;3.30;;
76826;SDS011;65788;52.284;20.890;2023-02-03T08:32:51;7.60;;;2.90;;
76826;SDS011;65788;52.284;20.890;2023-02-03T08:35:18;6.80;;;3.20;;
76826;SDS011;65788;52.284;20.890;2023-02-03T08:37:45;7.40;;;3.70;;
76826;SDS011;65788;52.284;20.890;2023-02-03T08:40:12;6.50;;;3.20;;
76826;SDS011;65788;52.284;20.890;2023-02-03T08:42:39;7.40;;;3.10;;
76826;SDS011;65788;52.284;20.890;2023-02-03T08:45:07;6.00;;;3.30;;
76826;SDS011;65788;52.284;20.890;2023-02-03T08:47:34;4.70;;;2.90;;
76826;SDS011;65788;52.284;20.890;2023-02-03T08:50:06;4.80;;;2.60;;
76826;SDS011;65788;52.284;20.890;2023-02-03T08:52:34;5.40;;;2.70;;
76826;SDS011;65788;52.284;20.890;2023-02-03T08:55:02;5.50;;;2.80;;
76826;SDS011;65788;52.284;20.890;2023-02-03T08:57:33;7.20;;;3.30;;
76826;SDS011;65788;52.284;20.890;2023-02-03T09:00:01;5.40;;;3.00;;
76826;SDS011;65788;52.284;20.890;2023-02-03T09:04:56;5.80;;;2.90;;
76826;SDS011;65788;52.284;20.890;2023-02-03T09:07:23;5.60;;;3.10;;
76826;SDS011;65788;52.284;20.890;2023-02-03T09:09:51;4.50;;;3.00;;
76826;SDS011;65788;52.284;20.890;2023-02-03T09:12:18;4.60;;;3.00;;
76826;SDS011;65788;52.284;20.890;2023-02-03T09:14:45;5.30;;;2.90;;
76826;SDS011;65788;52.284;20.890;2023-02-03T09:17:12;6.30;;;3.30;;
76826;SDS011;65788;52.284;20.890;2023-02-03T09:19:40;5.70;;;2.90;;
76826;SDS011;65788;52.284;20.890;2023-02-03T09:22:07;4.90;;;2.90;;
76826;SDS011;65788;52.284;20.890;2023-02-03T09:24:34;5.30;;;2.90;;
76826;SDS011;65788;52.284;20.890;2023-02-03T09:27:01;5.00;;;2.80;;
76826;SDS011;65788;52.284;20.890;2023-02-03T09:29:28;5.30;;;3.00;;
76826;SDS011;65788;52.284;20.890;2023-02-03T09:31:55;4.90;;;2.90;;
76826;SDS011;65788;52.284;20.890;2023-02-03T09:34:22;5.50;;;2.50;;
76826;SDS011;65788;52.284;20.890;2023-02-03T09:36:49;4.80;;;2.50;;
76826;SDS011;65788;52.284;20.890;2023-02-03T09:39:17;5.30;;;3.00;;
76826;SDS011;65788;52.284;20.890;2023-02-03T09:47:23;4.80;;;2.60;;
76826;SDS011;65788;52.284;20.890;2023-02-03T09:49:55;4.10;;;2.60;;
76826;SDS011;65788;52.284;20.890;2023-02-03T09:52:25;4.70;;;2.90;;
76826;SDS011;65788;52.284;20.890;2023-02-03T09:55:00;4.30;;;2.50;;
76826;SDS011;65788;52.284;20.890;2023-02-03T09:57:34;5.50;;;3.00;;
76826;SDS011;65788;52.284;20.890;2023-02-03T10:00:31;4.60;;;2.80;;
76826;SDS011;65788;52.284;20.890;2023-02-03T10:05:51;5.10;;;3.20;;
76826;SDS011;65788;52.284;20.890;2023-02-03T10:11:37;5.30;;;2.90;;
76826;SDS011;65788;52.284;20.890;2023-02-03T10:17:10;4.70;;;2.80;;
76826;SDS011;65788;52.284;20.890;2023-02-03T10:19:50;4.20;;;2.70;;
76826;SDS011;65788;52.284;20.890;2023-02-03T10:22:24;4.80;;;2.60;;
76826;SDS011;65788;52.284;20.890;2023-02-03T10:24:58;5.00;;;2.50;;
76826;SDS011;65788;52.284;20.890;2023-02-03T10:27:32;4.00;;;2.40;;
76826;SDS011;65788;52.284;20.890;2023-02-03T10:30:04;4.50;;;2.30;;
76826;SDS011;65788;52.284;20.890;2023-02-03T10:32:44;3.90;;;2.40;;
76826;SDS011;65788;52.284;20.890;2023-02-03T10:35:15;3.70;;;2.20;;
76826;SDS011;65788;52.284;20.890;2023-02-03T10:37:44;4.60;;;2.50;;
76826;SDS011;65788;52.284;20.890;2023-02-03T10:40:15;4.60;;;2.40;;
76826;SDS011;65788;52.284;20.890;2023-02-03T10:42:43;4.00;;;2.20;;
76826;SDS011;65788;52.284;20.890;2023-02-03T10:45:33;5.30;;;2.60;;
76826;SDS011;65788;52.284;20.890;2023-02-03T10:48:03;4.60;;;2.10;;
76826;SDS011;65788;52.284;20.890;2023-02-03T10:50:37;4.80;;;2.70;;
76826;SDS011;65788;52.284;20.890;2023-02-03T10:55:45;4.60;;;2.20;;
76826;SDS011;65788;52.284;20.890;2023-02-03T10:58:16;3.70;;;2.20;;
76826;SDS011;65788;52.284;20.890;2023-02-03T11:00:49;3.90;;;2.30;;
76826;SDS011;65788;52.284;20.890;2023-02-03T11:03:31;4.70;;;2.30;;
76826;SDS011;65788;52.284;20.890;2023-02-03T11:08:39;4.30;;;2.00;;
76826;SDS011;65788;52.284;20.890;2023-02-03T11:11:12;3.90;;;2.10;;
76826;SDS011;65788;52.284;20.890;2023-02-03T11:16:33;5.30;;;2.40;;
76826;SDS011;65788;52.284;20.890;2023-02-03T11:19:02;4.20;;;2.10;;
76826;SDS011;65788;52.284;20.890;2023-02-03T11:24:23;4.30;;;2.10;;
76826;SDS011;65788;52.284;20.890;2023-02-03T11:29:33;5.30;;;2.40;;
76826;SDS011;65788;52.284;20.890;2023-02-03T11:32:14;3.50;;;2.10;;
76826;SDS011;65788;52.284;20.890;2023-02-03T11:40:45;3.80;;;2.00;;
76826;SDS011;65788;52.284;20.890;2023-02-03T11:55:41;3.40;;;1.80;;
76826;SDS011;65788;52.284;20.890;2023-02-03T11:58:24;3.60;;;2.10;;
76826;SDS011;65788;52.284;20.890;2023-02-03T12:14:31;3.40;;;2.00;;
76826;SDS011;65788;52.284;20.890;2023-02-03T12:25:31;3.40;;;2.10;;
76826;SDS011;65788;52.284;20.890;2023-02-03T12:28:16;3.10;;;1.90;;
76826;SDS011;65788;52.284;20.890;2023-02-03T12:30:48;3.10;;;1.80;;
76826;SDS011;65788;52.284;20.890;2023-02-03T12:33:22;3.70;;;2.10;;
76826;SDS011;65788;52.284;20.890;2023-02-03T12:35:55;4.00;;;1.80;;
76826;SDS011;65788;52.284;20.890;2023-02-03T12:41:17;4.20;;;1.80;;
76826;SDS011;65788;52.284;20.890;2023-02-03T12:43:49;3.40;;;1.90;;
76826;SDS011;65788;52.284;20.890;2023-02-03T12:46:31;3.40;;;1.90;;
76826;SDS011;65788;52.284;20.890;2023-02-03T12:51:42;6.30;;;2.10;;
76826;SDS011;65788;52.284;20.890;2023-02-03T12:57:16;5.30;;;2.20;;
76826;SDS011;65788;52.284;20.890;2023-02-03T13:00:48;3.30;;;2.00;;
76826;SDS011;65788;52.284;20.890;2023-02-03T13:03:17;3.80;;;2.10;;
76826;SDS011;65788;52.284;20.890;2023-02-03T13:08:53;3.20;;;2.00;;
76826;SDS011;65788;52.284;20.890;2023-02-03T13:11:47;3.40;;;1.70;;
76826;SDS011;65788;52.284;20.890;2023-02-03T13:14:47;4.10;;;2.20;;
76826;SDS011;65788;52.284;20.890;2023-02-03T13:20:19;3.90;;;2.30;;
76826;SDS011;65788;52.284;20.890;2023-02-03T13:22:50;3.10;;;1.90;;
76826;SDS011;65788;52.284;20.890;2023-02-03T13:33:56;3.00;;;1.80;;
76826;SDS011;65788;52.284;20.890;2023-02-03T13:39:32;3.40;;;1.90;;
76826;SDS011;65788;52.284;20.890;2023-02-03T13:42:28;3.00;;;1.90;;
76826;SDS011;65788;52.284;20.890;2023-02-03T13:45:08;4.40;;;2.10;;
76826;SDS011;65788;52.284;20.890;2023-02-03T13:47:50;3.90;;;2.10;;
76826;SDS011;65788;52.284;20.890;2023-02-03T13:50:21;3.30;;;1.70;;
76826;SDS011;65788;52.284;20.890;2023-02-03T13:53:00;2.90;;;1.70;;
76826;SDS011;65788;52.284;20.890;2023-02-03T13:55:37;3.90;;;2.00;;
76826;SDS011;65788;52.284;20.890;2023-02-03T13:58:25;3.50;;;1.90;;
76826;SDS011;65788;52.284;20.890;2023-02-03T14:05:56;4.60;;;2.20;;
76826;SDS011;65788;52.284;20.890;2023-02-03T14:16:33;3.60;;;2.30;;
76826;SDS011;65788;52.284;20.890;2023-02-03T14:19:04;3.60;;;2.00;;
76826;SDS011;65788;52.284;20.890;2023-02-03T14:21:48;4.30;;;2.60;;
76826;SDS011;65788;52.284;20.890;2023-02-03T14:24:19;3.60;;;2.10;;
76826;SDS011;65788;52.284;20.890;2023-02-03T14:26:52;4.10;;;2.30;;
76826;SDS011;65788;52.284;20.890;2023-02-03T14:29:25;4.00;;;2.10;;
76826;SDS011;65788;52.284;20.890;2023-02-03T14:45:33;3.10;;;2.10;;
76826;SDS011;65788;52.284;20.890;2023-02-03T14:50:37;4.90;;;2.50;;
76826;SDS011;65788;52.284;20.890;2023-02-03T15:02:15;4.40;;;2.30;;
76826;SDS011;65788;52.284;20.890;2023-02-03T15:04:46;4.70;;;3.00;;
76826;SDS011;65788;52.284;20.890;2023-02-03T15:10:08;5.20;;;2.40;;
76826;SDS011;65788;52.284;20.890;2023-02-03T15:12:44;4.00;;;2.50;;
76826;SDS011;65788;52.284;20.890;2023-02-03T15:17:52;3.70;;;2.20;;
76826;SDS011;65788;52.284;20.890;2023-02-03T15:23:21;4.40;;;2.80;;
76826;SDS011;65788;52.284;20.890;2023-02-03T15:25:56;4.00;;;2.40;;
76826;SDS011;65788;52.284;20.890;2023-02-03T15:28:24;4.80;;;2.80;;
76826;SDS011;65788;52.284;20.890;2023-02-03T15:30:58;4.30;;;2.70;;
76826;SDS011;65788;52.284;20.890;2023-02-03T15:33:50;4.20;;;2.50;;
76826;SDS011;65788;52.284;20.890;2023-02-03T15:36:30;3.90;;;2.40;;
76826;SDS011;65788;52.284;20.890;2023-02-03T15:39:10;4.50;;;2.80;;
76826;SDS011;65788;52.284;20.890;2023-02-03T15:41:42;4.00;;;2.30;;
76826;SDS011;65788;52.284;20.890;2023-02-03T15:47:37;4.80;;;3.00;;
76826;SDS011;65788;52.284;20.890;2023-02-03T15:50:21;4.70;;;2.60;;
76826;SDS011;65788;52.284;20.890;2023-02-03T15:52:56;4.70;;;2.60;;
76826;SDS011;65788;52.284;20.890;2023-02-03T15:55:51;5.00;;;3.00;;
76826;SDS011;65788;52.284;20.890;2023-02-03T15:58:21;4.50;;;2.90;;
76826;SDS011;65788;52.284;20.890;2023-02-03T16:00:52;5.00;;;2.90;;
76826;SDS011;65788;52.284;20.890;2023-02-03T16:03:27;4.90;;;3.10;;
76826;SDS011;65788;52.284;20.890;2023-02-03T16:06:22;4.50;;;2.90;;
76826;SDS011;65788;52.284;20.890;2023-02-03T16:08:53;6.50;;;3.50;;
76826;SDS011;65788;52.284;20.890;2023-02-03T16:14:05;7.60;;;4.00;;
76826;SDS011;65788;52.284;20.890;2023-02-03T16:16:49;5.70;;;3.80;;
76826;SDS011;65788;52.284;20.890;2023-02-03T16:19:23;6.90;;;4.00;;
76826;SDS011;65788;52.284;20.890;2023-02-03T16:21:55;7.70;;;4.30;;
76826;SDS011;65788;52.284;20.890;2023-02-03T16:33:01;10.20;;;5.30;;
76826;SDS011;65788;52.284;20.890;2023-02-03T16:35:54;10.80;;;5.80;;
76826;SDS011;65788;52.284;20.890;2023-02-03T16:38:48;11.50;;;5.50;;
76826;SDS011;65788;52.284;20.890;2023-02-03T16:41:36;12.40;;;6.20;;
76826;SDS011;65788;52.284;20.890;2023-02-03T16:44:22;15.90;;;6.10;;
76826;SDS011;65788;52.284;20.890;2023-02-03T16:47:30;11.00;;;6.00;;
76826;SDS011;65788;52.284;20.890;2023-02-03T16:50:16;12.80;;;6.10;;
76826;SDS011;65788;52.284;20.890;2023-02-03T16:53:04;12.10;;;6.00;;
76826;SDS011;65788;52.284;20.890;2023-02-03T16:55:38;12.70;;;5.70;;
76826;SDS011;65788;52.284;20.890;2023-02-03T16:58:05;12.30;;;6.40;;
76826;SDS011;65788;52.284;20.890;2023-02-03T17:00:32;12.10;;;5.80;;
76826;SDS011;65788;52.284;20.890;2023-02-03T17:03:02;13.60;;;6.70;;
76826;SDS011;65788;52.284;20.890;2023-02-03T17:05:31;11.00;;;6.20;;
76826;SDS011;65788;52.284;20.890;2023-02-03T17:08:04;13.40;;;6.60;;
76826;SDS011;65788;52.284;20.890;2023-02-03T17:10:33;13.20;;;6.20;;
76826;SDS011;65788;52.284;20.890;2023-02-03T17:13:01;11.50;;;6.10;;
76826;SDS011;65788;52.284;20.890;2023-02-03T17:15:28;12.20;;;5.90;;
76826;SDS011;65788;52.284;20.890;2023-02-03T17:17:56;13.90;;;6.10;;
76826;SDS011;65788;52.284;20.890;2023-02-03T17:20:23;12.10;;;6.50;;
76826;SDS011;65788;52.284;20.890;2023-02-03T17:22:51;11.70;;;6.10;;
76826;SDS011;65788;52.284;20.890;2023-02-03T17:25:20;10.10;;;5.90;;
76826;SDS011;65788;52.284;20.890;2023-02-03T17:27:48;12.20;;;6.00;;
76826;SDS011;65788;52.284;20.890;2023-02-03T17:30:15;12.30;;;6.40;;
76826;SDS011;65788;52.284;20.890;2023-02-03T17:32:43;11.10;;;5.70;;
76826;SDS011;65788;52.284;20.890;2023-02-03T17:35:10;11.70;;;6.00;;
76826;SDS011;65788;52.284;20.890;2023-02-03T17:37:37;9.70;;;5.70;;
76826;SDS011;65788;52.284;20.890;2023-02-03T17:40:04;11.30;;;5.50;;
76826;SDS011;65788;52.284;20.890;2023-02-03T17:42:31;9.40;;;5.60;;
76826;SDS011;65788;52.284;20.890;2023-02-03T17:44:58;8.60;;;5.20;;
76826;SDS011;65788;52.284;20.890;2023-02-03T17:47:25;10.50;;;5.20;;
76826;SDS011;65788;52.284;20.890;2023-02-03T17:49:52;9.30;;;5.10;;
76826;SDS011;65788;52.284;20.890;2023-02-03T17:52:19;9.40;;;5.00;;
76826;SDS011;65788;52.284;20.890;2023-02-03T17:54:46;10.20;;;5.30;;
76826;SDS011;65788;52.284;20.890;2023-02-03T17:57:14;10.50;;;5.00;;
76826;SDS011;65788;52.284;20.890;2023-02-03T17:59:41;10.30;;;5.60;;
76826;SDS011;65788;52.284;20.890;2023-02-03T18:02:08;8.00;;;4.80;;
76826;SDS011;65788;52.284;20.890;2023-02-03T18:04:35;8.90;;;4.80;;
76826;SDS011;65788;52.284;20.890;2023-02-03T18:07:02;9.70;;;5.30;;